Time;durP1;ratioP1;P1;durP2;ratioP2;P2;SDS_P1;SDS_P2;PMS_P1;PMS_P2;Temp;Humidity;BMP_temperature;BMP_pressure;BME280_temperature;BME280_humidity;BME280_pressure;Samples;Min_cycle;Max_cycle;Signal;HPM_P1;HPM_P2
2022/11/27 00:00:23;;;;;;;24.25;6.45;;;;;;;;;;4953484;28;20031;-75
2022/11/27 00:02:50;;;;;;;28.73;5.75;;;;;;;;;;4946392;28;20052;-77
2022/11/27 00:05:16;;;;;;;28.80;6.93;;;;;;;;;;4949763;28;20041;-74
2022/11/27 00:07:42;;;;;;;22.27;6.43;;;;;;;;;;4953149;28;20023;-78
2022/11/27 00:10:08;;;;;;;23.05;5.55;;;;;;;;;;4947919;28;20072;-74
2022/11/27 00:12:34;;;;;;;33.55;6.45;;;;;;;;;;4950394;28;20027;-74
2022/11/27 00:15:00;;;;;;;21.90;6.38;;;;;;;;;;4932499;29;20043;-75
2022/11/27 00:17:26;;;;;;;19.23;6.40;;;;;;;;;;4951257;28;20110;-74
2022/11/27 00:19:52;;;;;;;25.23;6.10;;;;;;;;;;4951282;28;20528;-74
2022/11/27 00:22:19;;;;;;;19.90;5.60;;;;;;;;;;4929844;28;20078;-73
2022/11/27 00:24:45;;;;;;;23.83;6.28;;;;;;;;;;4931564;29;20084;-75
2022/11/27 00:27:11;;;;;;;21.70;5.88;;;;;;;;;;4932021;29;20039;-73
2022/11/27 00:29:37;;;;;;;21.10;6.57;;;;;;;;;;4930673;29;20057;-74
2022/11/27 00:32:05;;;;;;;31.02;6.50;;;;;;;;;;4929603;29;20024;-73
2022/11/27 00:34:31;;;;;;;23.90;6.65;;;;;;;;;;4929275;29;20106;-74
2022/11/27 00:36:57;;;;;;;23.15;6.90;;;;;;;;;;4927985;29;20054;-77
2022/11/27 00:39:23;;;;;;;29.00;7.68;;;;;;;;;;4928129;29;20464;-75
2022/11/27 00:41:49;;;;;;;24.85;5.35;;;;;;;;;;4931949;29;20023;-74
2022/11/27 00:44:15;;;;;;;28.95;5.93;;;;;;;;;;4929274;29;20035;-73
2022/11/27 00:46:41;;;;;;;24.05;6.57;;;;;;;;;;4929684;29;20027;-75
2022/11/27 00:49:08;;;;;;;22.88;7.03;;;;;;;;;;4929493;29;20162;-73
2022/11/27 00:51:35;;;;;;;22.27;5.90;;;;;;;;;;4931639;29;20042;-75
2022/11/27 00:54:01;;;;;;;20.90;5.93;;;;;;;;;;4936073;29;20053;-73
2022/11/27 00:56:28;;;;;;;31.58;7.57;;;;;;;;;;4933608;29;20084;-73
2022/11/27 00:58:55;;;;;;;21.52;5.97;;;;;;;;;;4930030;29;20046;-75
2022/11/27 01:01:22;;;;;;;22.80;6.40;;;;;;;;;;4926829;29;20107;-73
2022/11/27 01:03:49;;;;;;;24.33;5.88;;;;;;;;;;4930621;29;20039;-73
2022/11/27 01:06:15;;;;;;;26.88;6.05;;;;;;;;;;4926872;29;20036;-73
2022/11/27 01:08:41;;;;;;;28.40;5.95;;;;;;;;;;4933891;29;20177;-76
2022/11/27 01:11:12;;;;;;;21.73;5.20;;;;;;;;;;4917066;29;20067;-74
2022/11/27 01:13:38;;;;;;;29.80;6.45;;;;;;;;;;4930318;29;20552;-73
2022/11/27 01:16:09;;;;;;;27.27;5.95;;;;;;;;;;4927784;29;20058;-73
2022/11/27 01:18:36;;;;;;;22.70;5.57;;;;;;;;;;4929028;29;20069;-73
2022/11/27 01:21:02;;;;;;;20.38;5.55;;;;;;;;;;4921617;28;20051;-73
2022/11/27 01:23:28;;;;;;;17.67;5.65;;;;;;;;;;4947018;28;20383;-73
2022/11/27 01:25:55;;;;;;;21.38;6.15;;;;;;;;;;4946538;28;20039;-77
2022/11/27 01:28:22;;;;;;;20.73;5.85;;;;;;;;;;4950918;28;20046;-75
2022/11/27 01:30:48;;;;;;;20.10;5.22;;;;;;;;;;4945639;28;20392;-75
2022/11/27 01:33:14;;;;;;;30.63;6.35;;;;;;;;;;4948759;28;20039;-73
2022/11/27 01:35:40;;;;;;;18.92;6.68;;;;;;;;;;4946204;28;20031;-73
2022/11/27 01:38:06;;;;;;;24.88;5.75;;;;;;;;;;4946630;28;20086;-73
2022/11/27 01:40:32;;;;;;;20.17;5.88;;;;;;;;;;4951984;28;20030;-72
2022/11/27 01:42:58;;;;;;;25.57;5.10;;;;;;;;;;4948853;28;20042;-73
2022/11/27 01:45:24;;;;;;;20.13;6.15;;;;;;;;;;4949145;28;20079;-74
2022/11/27 01:47:58;;;;;;;25.45;6.88;;;;;;;;;;4945462;28;20253;-74
2022/11/27 01:50:28;;;;;;;20.05;6.25;;;;;;;;;;4932467;29;20036;-76
2022/11/27 01:52:57;;;;;;;23.30;7.30;;;;;;;;;;4948348;28;20039;-74
2022/11/27 01:55:35;;;;;;;20.40;5.18;;;;;;;;;;4947696;28;20039;-72
2022/11/27 01:58:06;;;;;;;18.23;6.00;;;;;;;;;;4943455;28;20082;-75
2022/11/27 02:00:32;;;;;;;27.35;5.90;;;;;;;;;;4945854;28;20095;-74
2022/11/27 02:02:58;;;;;;;14.77;5.80;;;;;;;;;;4947243;29;20019;-73
2022/11/27 02:05:27;;;;;;;19.23;5.55;;;;;;;;;;4943117;28;20077;-78
2022/11/27 02:07:54;;;;;;;21.73;5.55;;;;;;;;;;4953182;28;20031;-75
2022/11/27 02:10:21;;;;;;;19.95;5.40;;;;;;;;;;4949467;28;20389;-73
2022/11/27 02:12:52;;;;;;;21.10;6.25;;;;;;;;;;4947024;28;20041;-74
2022/11/27 02:15:37;;;;;;;22.38;6.65;;;;;;;;;;4945747;28;20124;-73
2022/11/27 02:18:09;;;;;;;15.85;6.00;;;;;;;;;;4945893;28;20123;-72
2022/11/27 02:20:48;;;;;;;24.27;5.70;;;;;;;;;;4949936;28;20032;-72
2022/11/27 02:23:20;;;;;;;16.65;5.10;;;;;;;;;;4951344;28;20495;-72
2022/11/27 02:25:49;;;;;;;18.83;5.75;;;;;;;;;;4938567;28;20477;-73
2022/11/27 02:28:15;;;;;;;21.27;6.53;;;;;;;;;;4924092;28;20121;-74
2022/11/27 02:30:46;;;;;;;23.40;7.40;;;;;;;;;;4943713;28;20110;-73
2022/11/27 02:33:12;;;;;;;13.70;4.53;;;;;;;;;;4947773;28;20065;-72
2022/11/27 02:35:47;;;;;;;22.00;5.07;;;;;;;;;;4951090;28;20035;-72
2022/11/27 02:38:16;;;;;;;20.85;5.00;;;;;;;;;;4948248;28;20055;-71
2022/11/27 02:40:42;;;;;;;16.60;5.75;;;;;;;;;;4946117;28;20023;-74
2022/11/27 02:43:11;;;;;;;20.15;5.10;;;;;;;;;;4953668;28;20043;-72
2022/11/27 02:45:39;;;;;;;14.57;5.15;;;;;;;;;;4948186;28;20144;-72
2022/11/27 02:48:06;;;;;;;18.95;5.63;;;;;;;;;;4947068;28;20325;-72
2022/11/27 02:50:34;;;;;;;18.65;4.80;;;;;;;;;;4945797;28;20047;-73
2022/11/27 02:53:03;;;;;;;21.10;5.65;;;;;;;;;;4950611;28;20042;-73
2022/11/27 02:55:31;;;;;;;16.23;4.80;;;;;;;;;;4944207;28;20027;-73
2022/11/27 02:57:58;;;;;;;23.88;5.93;;;;;;;;;;4950330;28;20034;-74
2022/11/27 03:00:24;;;;;;;14.40;4.85;;;;;;;;;;4947313;28;20154;-72
2022/11/27 03:02:55;;;;;;;16.55;5.07;;;;;;;;;;4944613;28;20023;-72
2022/11/27 03:05:23;;;;;;;17.02;5.70;;;;;;;;;;4937954;28;20031;-73
2022/11/27 03:08:04;;;;;;;14.65;5.03;;;;;;;;;;4949427;28;20151;-73
2022/11/27 03:10:43;;;;;;;15.23;4.93;;;;;;;;;;4940937;29;20372;-75
2022/11/27 03:13:09;;;;;;;19.67;4.65;;;;;;;;;;4945109;28;20027;-74
2022/11/27 03:15:41;;;;;;;20.42;5.55;;;;;;;;;;4949328;28;20038;-73
2022/11/27 03:18:27;;;;;;;16.25;5.20;;;;;;;;;;4953353;28;20027;-73
2022/11/27 03:20:58;;;;;;;17.45;5.45;;;;;;;;;;4947915;28;20059;-73
2022/11/27 03:23:24;;;;;;;16.73;5.63;;;;;;;;;;4943374;28;20074;-74
2022/11/27 03:25:51;;;;;;;13.95;5.50;;;;;;;;;;4950658;28;20395;-73
2022/11/27 03:28:17;;;;;;;24.83;6.80;;;;;;;;;;4945907;28;20058;-73
2022/11/27 03:30:43;;;;;;;17.05;5.25;;;;;;;;;;4946223;28;20342;-73
2022/11/27 03:33:10;;;;;;;19.23;5.70;;;;;;;;;;4942672;28;20135;-76
2022/11/27 03:35:36;;;;;;;14.93;5.18;;;;;;;;;;4932794;28;20083;-73
2022/11/27 03:38:02;;;;;;;19.38;5.45;;;;;;;;;;4949758;28;20030;-73
2022/11/27 03:40:58;;;;;;;19.50;5.65;;;;;;;;;;4947780;28;20019;-74
2022/11/27 03:43:27;;;;;;;17.80;5.68;;;;;;;;;;4931590;28;20051;-73
2022/11/27 03:46:19;;;;;;;16.52;5.43;;;;;;;;;;4943395;28;20031;-73
2022/11/27 03:48:56;;;;;;;16.42;6.38;;;;;;;;;;4937963;28;20074;-73
2022/11/27 03:51:25;;;;;;;16.35;6.05;;;;;;;;;;4948115;28;20524;-74
2022/11/27 03:54:05;;;;;;;22.25;6.88;;;;;;;;;;4933518;28;20023;-73
2022/11/27 03:56:39;;;;;;;18.80;6.05;;;;;;;;;;4929344;29;20038;-74
2022/11/27 03:59:09;;;;;;;21.63;6.30;;;;;;;;;;4946861;28;20038;-73
2022/11/27 04:01:35;;;;;;;19.17;6.38;;;;;;;;;;4947952;28;20086;-76
2022/11/27 04:04:01;;;;;;;18.58;5.50;;;;;;;;;;4951585;28;20444;-73
2022/11/27 04:06:27;;;;;;;15.38;6.50;;;;;;;;;;4945926;28;20554;-74
2022/11/27 04:08:53;;;;;;;24.17;7.75;;;;;;;;;;4927256;28;20030;-74
2022/11/27 04:11:19;;;;;;;18.10;6.22;;;;;;;;;;4941563;28;20074;-73
2022/11/27 04:13:45;;;;;;;20.75;5.60;;;;;;;;;;4950657;28;20015;-73
2022/11/27 04:16:11;;;;;;;15.57;5.47;;;;;;;;;;4954805;28;20027;-74
2022/11/27 04:18:37;;;;;;;18.75;5.47;;;;;;;;;;4952905;28;20059;-75
2022/11/27 04:21:03;;;;;;;17.33;6.03;;;;;;;;;;4948315;28;20067;-73
2022/11/27 04:23:30;;;;;;;15.00;5.97;;;;;;;;;;4930997;29;20461;-73
2022/11/27 04:25:56;;;;;;;19.90;6.82;;;;;;;;;;4931198;29;20036;-74
2022/11/27 04:28:22;;;;;;;16.65;7.07;;;;;;;;;;4929545;29;20028;-73
2022/11/27 04:30:51;;;;;;;16.75;5.28;;;;;;;;;;4929714;29;20038;-73
2022/11/27 04:33:17;;;;;;;18.55;5.40;;;;;;;;;;4930145;29;20020;-73
2022/11/27 04:35:43;;;;;;;19.90;5.43;;;;;;;;;;4929869;29;20047;-73
2022/11/27 04:38:09;;;;;;;19.02;5.97;;;;;;;;;;4925160;29;20023;-73
2022/11/27 04:40:36;;;;;;;16.30;5.85;;;;;;;;;;4929551;29;20052;-75
2022/11/27 04:43:02;;;;;;;16.02;5.68;;;;;;;;;;4923169;29;20044;-76
2022/11/27 04:45:28;;;;;;;11.07;5.00;;;;;;;;;;4923613;29;20115;-74
2022/11/27 04:47:54;;;;;;;18.20;5.63;;;;;;;;;;4921167;29;20063;-69
2022/11/27 04:50:20;;;;;;;19.38;4.82;;;;;;;;;;4925068;29;20024;-75
2022/11/27 04:52:46;;;;;;;13.55;5.95;;;;;;;;;;4929234;29;20046;-74
2022/11/27 04:55:12;;;;;;;18.08;4.68;;;;;;;;;;4933824;29;20110;-74
2022/11/27 04:57:38;;;;;;;14.50;5.15;;;;;;;;;;4911546;29;20028;-75
2022/11/27 05:00:05;;;;;;;17.80;5.18;;;;;;;;;;4939704;29;20079;-75
2022/11/27 05:02:31;;;;;;;17.83;5.03;;;;;;;;;;4934259;29;20498;-75
2022/11/27 05:04:57;;;;;;;13.38;4.50;;;;;;;;;;4935508;29;20063;-76
2022/11/27 05:07:23;;;;;;;16.23;4.40;;;;;;;;;;4934362;29;20473;-75
2022/11/27 05:09:49;;;;;;;20.13;5.40;;;;;;;;;;4941372;29;20027;-75
2022/11/27 05:12:15;;;;;;;13.38;4.57;;;;;;;;;;4939567;29;20357;-75
2022/11/27 05:14:41;;;;;;;12.57;4.50;;;;;;;;;;4932778;29;20032;-74
2022/11/27 05:17:07;;;;;;;13.25;4.60;;;;;;;;;;4923630;29;20040;-74
2022/11/27 05:19:33;;;;;;;14.15;4.20;;;;;;;;;;4924364;29;20386;-75
2022/11/27 05:21:59;;;;;;;15.98;5.55;;;;;;;;;;4924205;28;20496;-76
2022/11/27 05:24:26;;;;;;;16.50;5.78;;;;;;;;;;4907953;29;20945;-75
2022/11/27 05:26:53;;;;;;;17.75;4.25;;;;;;;;;;4916141;29;20116;-77
2022/11/27 05:29:19;;;;;;;10.75;5.10;;;;;;;;;;4939650;29;20035;-75
2022/11/27 05:31:45;;;;;;;13.65;5.07;;;;;;;;;;4933460;29;20042;-74
2022/11/27 05:34:12;;;;;;;15.50;5.32;;;;;;;;;;4924803;29;20115;-76
2022/11/27 05:36:38;;;;;;;14.60;5.85;;;;;;;;;;4924962;29;20120;-76
2022/11/27 05:39:07;;;;;;;19.98;7.68;;;;;;;;;;4927208;29;20060;-74
2022/11/27 05:41:34;;;;;;;14.45;3.88;;;;;;;;;;4927645;29;20039;-73
2022/11/27 05:44:00;;;;;;;15.68;3.60;;;;;;;;;;4926512;29;20039;-75
2022/11/27 05:46:26;;;;;;;13.40;4.43;;;;;;;;;;4926212;29;20035;-75
2022/11/27 05:48:52;;;;;;;11.18;4.60;;;;;;;;;;4925388;29;20728;-74
2022/11/27 05:51:18;;;;;;;14.63;4.07;;;;;;;;;;4923402;29;20136;-75
2022/11/27 05:53:44;;;;;;;13.75;3.72;;;;;;;;;;4927330;29;20032;-79
2022/11/27 05:56:11;;;;;;;14.52;4.18;;;;;;;;;;4929252;29;20046;-77
2022/11/27 05:58:38;;;;;;;10.48;4.55;;;;;;;;;;4911178;29;20122;-75
2022/11/27 06:01:04;;;;;;;11.65;4.22;;;;;;;;;;4923764;29;20035;-75
2022/11/27 06:03:30;;;;;;;15.90;4.55;;;;;;;;;;4924788;29;20069;-76
2022/11/27 06:05:56;;;;;;;12.00;4.50;;;;;;;;;;4924257;29;20031;-77
2022/11/27 06:08:23;;;;;;;16.98;4.20;;;;;;;;;;4925289;29;21303;-80
2022/11/27 06:10:49;;;;;;;12.07;3.70;;;;;;;;;;4926945;29;20023;-75
2022/11/27 06:13:16;;;;;;;43.80;22.13;;;;;;;;;;4925029;29;20043;-75
2022/11/27 06:15:42;;;;;;;16.77;6.28;;;;;;;;;;4927849;29;20035;-78
2022/11/27 06:18:08;;;;;;;9.38;4.10;;;;;;;;;;4921674;29;20048;-77
2022/11/27 06:20:34;;;;;;;10.60;3.85;;;;;;;;;;4927403;29;20544;-74
2022/11/27 06:23:00;;;;;;;11.98;4.07;;;;;;;;;;4935061;28;20493;-75
2022/11/27 06:25:26;;;;;;;11.23;3.63;;;;;;;;;;4944626;28;20485;-75
2022/11/27 06:27:52;;;;;;;6.95;3.45;;;;;;;;;;4946888;28;20034;-76
2022/11/27 06:30:19;;;;;;;21.13;5.10;;;;;;;;;;4941990;28;20496;-74
2022/11/27 06:32:45;;;;;;;12.52;3.80;;;;;;;;;;4943749;28;20066;-74
2022/11/27 06:35:11;;;;;;;15.38;3.88;;;;;;;;;;4942379;28;20075;-73
2022/11/27 06:37:37;;;;;;;14.90;3.75;;;;;;;;;;4939991;28;20492;-73
2022/11/27 06:40:03;;;;;;;10.30;3.78;;;;;;;;;;4946422;28;20059;-74
2022/11/27 06:42:29;;;;;;;13.30;3.60;;;;;;;;;;4929883;28;20035;-76
2022/11/27 06:44:56;;;;;;;12.52;3.55;;;;;;;;;;4947252;28;20027;-77
2022/11/27 06:47:22;;;;;;;10.05;3.20;;;;;;;;;;4946169;28;20041;-74
2022/11/27 06:49:48;;;;;;;10.18;3.85;;;;;;;;;;4948319;28;20030;-78
2022/11/27 06:52:14;;;;;;;8.50;3.95;;;;;;;;;;4943081;28;20036;-74
2022/11/27 06:54:40;;;;;;;14.95;3.95;;;;;;;;;;4945322;28;20059;-74
2022/11/27 06:57:06;;;;;;;9.95;3.55;;;;;;;;;;4946631;28;20042;-72
2022/11/27 06:59:32;;;;;;;14.52;4.03;;;;;;;;;;4943380;28;20032;-72
2022/11/27 07:01:58;;;;;;;7.40;3.53;;;;;;;;;;4939122;28;20032;-72
2022/11/27 07:04:24;;;;;;;9.77;3.60;;;;;;;;;;4940054;28;20071;-73
2022/11/27 07:06:50;;;;;;;9.65;3.70;;;;;;;;;;4944698;28;20035;-80
2022/11/27 07:09:16;;;;;;;11.30;3.83;;;;;;;;;;4936554;28;20039;-74
2022/11/27 07:11:42;;;;;;;11.55;3.72;;;;;;;;;;4946181;28;20259;-75
2022/11/27 07:14:09;;;;;;;13.07;4.13;;;;;;;;;;4929282;28;20472;-72
2022/11/27 07:16:36;;;;;;;10.35;3.67;;;;;;;;;;4928096;28;20074;-76
2022/11/27 07:19:06;;;;;;;10.70;3.85;;;;;;;;;;4946345;28;20033;-74
2022/11/27 07:21:32;;;;;;;12.07;3.65;;;;;;;;;;4941805;28;20047;-73
2022/11/27 07:23:59;;;;;;;15.07;3.50;;;;;;;;;;4943608;28;20090;-72
2022/11/27 07:26:26;;;;;;;11.30;4.65;;;;;;;;;;4941069;28;20036;-77
2022/11/27 07:28:54;;;;;;;15.38;3.95;;;;;;;;;;4925296;28;20106;-74
2022/11/27 07:31:25;;;;;;;9.60;3.22;;;;;;;;;;4944267;28;20023;-72
2022/11/27 07:33:55;;;;;;;12.52;3.72;;;;;;;;;;4942941;28;20815;-75
2022/11/27 07:36:22;;;;;;;7.63;3.17;;;;;;;;;;4940896;28;20032;-77
2022/11/27 07:38:48;;;;;;;9.50;3.65;;;;;;;;;;4944625;28;20027;-72
2022/11/27 07:41:15;;;;;;;14.60;3.50;;;;;;;;;;4941683;28;20770;-78
2022/11/27 07:43:42;;;;;;;15.00;4.00;;;;;;;;;;4939294;28;20598;-73
2022/11/27 07:46:13;;;;;;;10.30;3.30;;;;;;;;;;4942392;28;20469;-74
2022/11/27 07:48:39;;;;;;;7.03;3.38;;;;;;;;;;4946345;28;20477;-76
2022/11/27 07:51:06;;;;;;;7.97;3.75;;;;;;;;;;4934806;28;20480;-76
2022/11/27 07:53:32;;;;;;;10.07;4.10;;;;;;;;;;4944376;28;20078;-74
2022/11/27 07:56:01;;;;;;;10.80;3.83;;;;;;;;;;4933439;28;20448;-73
2022/11/27 07:58:27;;;;;;;19.15;6.22;;;;;;;;;;4945314;28;20063;-77
2022/11/27 08:00:54;;;;;;;14.88;5.95;;;;;;;;;;4940271;28;20043;-74
2022/11/27 08:03:20;;;;;;;14.05;7.45;;;;;;;;;;4945367;28;20123;-72
2022/11/27 08:05:46;;;;;;;11.02;4.90;;;;;;;;;;4953178;29;20388;-75
2022/11/27 08:08:12;;;;;;;12.48;4.65;;;;;;;;;;4932782;29;20041;-73
2022/11/27 08:10:39;;;;;;;13.95;4.55;;;;;;;;;;4935511;28;20043;-76
2022/11/27 08:13:05;;;;;;;14.85;4.68;;;;;;;;;;4946878;28;20039;-74
2022/11/27 08:15:32;;;;;;;11.90;3.92;;;;;;;;;;4945526;28;20115;-73
2022/11/27 08:17:58;;;;;;;15.05;4.28;;;;;;;;;;4950381;28;20037;-74
2022/11/27 08:20:24;;;;;;;10.40;4.35;;;;;;;;;;4945482;28;20035;-75
2022/11/27 08:22:50;;;;;;;11.88;4.07;;;;;;;;;;4945342;28;20084;-73
2022/11/27 08:25:17;;;;;;;15.60;5.15;;;;;;;;;;4929068;28;20041;-73
2022/11/27 08:27:43;;;;;;;11.40;4.05;;;;;;;;;;4949659;28;20027;-73
2022/11/27 08:30:09;;;;;;;12.50;4.05;;;;;;;;;;4937191;28;20391;-73
2022/11/27 08:32:39;;;;;;;10.15;4.28;;;;;;;;;;4944925;29;20478;-74
2022/11/27 08:35:06;;;;;;;10.43;3.78;;;;;;;;;;4938079;28;20093;-72
2022/11/27 08:37:32;;;;;;;8.13;4.00;;;;;;;;;;4946129;28;20429;-72
2022/11/27 08:39:58;;;;;;;12.98;4.30;;;;;;;;;;4947200;28;20028;-74
2022/11/27 08:42:24;;;;;;;13.68;5.03;;;;;;;;;;4952333;28;20043;-73
2022/11/27 08:44:50;;;;;;;13.25;4.97;;;;;;;;;;4951795;28;20027;-72
2022/11/27 08:47:16;;;;;;;10.70;4.30;;;;;;;;;;4946486;28;20095;-72
2022/11/27 08:49:43;;;;;;;14.90;4.18;;;;;;;;;;4925960;29;20067;-72
2022/11/27 08:52:10;;;;;;;14.60;4.13;;;;;;;;;;4949143;28;20143;-71
2022/11/27 08:54:36;;;;;;;13.57;5.00;;;;;;;;;;4945029;28;20054;-72
2022/11/27 08:57:02;;;;;;;8.52;4.45;;;;;;;;;;4931261;29;20082;-71
2022/11/27 08:59:28;;;;;;;11.05;3.92;;;;;;;;;;4945451;28;20039;-71
2022/11/27 09:01:54;;;;;;;11.90;4.25;;;;;;;;;;4950567;28;20175;-72
2022/11/27 09:04:21;;;;;;;11.98;5.40;;;;;;;;;;4946889;28;20090;-71
2022/11/27 09:06:50;;;;;;;11.25;4.50;;;;;;;;;;4953443;28;20507;-73
2022/11/27 09:09:16;;;;;;;11.55;4.68;;;;;;;;;;4949684;28;20070;-75
2022/11/27 09:11:42;;;;;;;15.57;5.43;;;;;;;;;;4953456;28;20035;-73
2022/11/27 09:14:09;;;;;;;12.93;5.05;;;;;;;;;;4948979;28;20528;-71
2022/11/27 09:16:35;;;;;;;16.25;4.50;;;;;;;;;;4947454;28;20106;-73
2022/11/27 09:19:01;;;;;;;12.43;5.15;;;;;;;;;;4934269;28;20071;-72
2022/11/27 09:21:31;;;;;;;14.13;5.10;;;;;;;;;;4949567;28;20500;-72
2022/11/27 09:23:58;;;;;;;12.80;5.85;;;;;;;;;;4942145;28;20107;-73
2022/11/27 09:26:25;;;;;;;14.63;5.88;;;;;;;;;;4946930;28;20584;-73
2022/11/27 09:28:52;;;;;;;15.18;6.80;;;;;;;;;;4946258;28;20036;-72
2022/11/27 09:31:19;;;;;;;22.38;9.05;;;;;;;;;;4943422;28;20031;-74
2022/11/27 09:33:45;;;;;;;13.57;6.40;;;;;;;;;;4949857;28;20035;-73
2022/11/27 09:36:16;;;;;;;18.33;7.82;;;;;;;;;;4939371;28;20053;-73
2022/11/27 09:38:42;;;;;;;21.00;7.93;;;;;;;;;;4936318;29;20038;-72
2022/11/27 09:41:11;;;;;;;17.33;7.15;;;;;;;;;;4949127;28;20479;-75
2022/11/27 09:43:42;;;;;;;17.38;7.07;;;;;;;;;;4946129;28;20152;-72
2022/11/27 09:46:12;;;;;;;12.50;5.68;;;;;;;;;;4943360;28;20035;-72
2022/11/27 09:48:41;;;;;;;15.90;6.70;;;;;;;;;;4956235;28;20481;-72
2022/11/27 09:51:32;;;;;;;16.42;6.50;;;;;;;;;;4944324;28;20422;-73
2022/11/27 09:54:12;;;;;;;15.93;5.80;;;;;;;;;;4948202;28;20053;-75
2022/11/27 09:56:39;;;;;;;12.55;6.13;;;;;;;;;;4945673;28;20106;-73
2022/11/27 09:59:14;;;;;;;10.60;5.47;;;;;;;;;;4948762;28;20027;-72
2022/11/27 10:01:40;;;;;;;14.65;6.75;;;;;;;;;;4952185;28;20106;-73
2022/11/27 10:04:06;;;;;;;14.55;6.32;;;;;;;;;;4945954;28;20432;-74
2022/11/27 10:06:41;;;;;;;13.35;6.10;;;;;;;;;;4951796;28;20034;-74
2022/11/27 10:09:07;;;;;;;12.55;6.70;;;;;;;;;;4948503;28;20034;-72
2022/11/27 10:11:56;;;;;;;12.20;6.03;;;;;;;;;;4949713;28;20363;-73
2022/11/27 10:14:29;;;;;;;17.58;7.63;;;;;;;;;;4937262;28;20070;-72
2022/11/27 10:16:58;;;;;;;13.48;6.03;;;;;;;;;;4951040;28;20397;-76
2022/11/27 10:19:45;;;;;;;15.35;6.90;;;;;;;;;;4948384;28;20083;-74
2022/11/27 10:22:14;;;;;;;10.32;6.38;;;;;;;;;;4941720;28;20087;-74
2022/11/27 10:25:03;;;;;;;13.05;6.60;;;;;;;;;;4934571;29;20035;-75
2022/11/27 10:27:37;;;;;;;14.65;6.28;;;;;;;;;;4919139;29;20048;-76
2022/11/27 10:30:12;;;;;;;20.67;9.85;;;;;;;;;;4945204;29;20389;-76
2022/11/27 10:32:39;;;;;;;19.45;9.00;;;;;;;;;;4922211;29;20477;-73
2022/11/27 10:35:09;;;;;;;15.55;6.40;;;;;;;;;;4919923;29;20039;-75
2022/11/27 10:38:11;;;;;;;14.27;5.80;;;;;;;;;;4922292;29;20102;-76
2022/11/27 10:40:46;;;;;;;18.58;6.63;;;;;;;;;;4847488;29;20475;-74
2022/11/27 10:43:14;;;;;;;18.27;6.45;;;;;;;;;;4913624;29;20052;-74
2022/11/27 10:45:56;;;;;;;14.32;6.38;;;;;;;;;;4928734;29;20051;-75
2022/11/27 10:48:22;;;;;;;14.60;6.43;;;;;;;;;;4918456;29;20047;-75
2022/11/27 10:50:49;;;;;;;17.65;7.40;;;;;;;;;;4918924;29;20036;-75
2022/11/27 10:53:21;;;;;;;11.38;6.00;;;;;;;;;;4925819;29;20039;-76
2022/11/27 10:56:06;;;;;;;12.05;6.05;;;;;;;;;;4914595;29;20031;-74
2022/11/27 10:58:41;;;;;;;15.00;6.47;;;;;;;;;;4925525;29;20714;-76
2022/11/27 11:01:08;;;;;;;16.90;6.55;;;;;;;;;;4926248;29;20040;-73
2022/11/27 11:03:35;;;;;;;12.90;6.72;;;;;;;;;;4917757;29;20030;-75
2022/11/27 11:06:04;;;;;;;20.27;7.18;;;;;;;;;;4902649;29;20767;-75
2022/11/27 11:08:30;;;;;;;14.27;7.88;;;;;;;;;;4922448;29;20026;-77
2022/11/27 11:10:56;;;;;;;20.90;8.05;;;;;;;;;;4927008;29;20060;-74
2022/11/27 11:13:27;;;;;;;11.88;6.03;;;;;;;;;;4911873;29;20028;-75
2022/11/27 11:16:01;;;;;;;20.30;9.00;;;;;;;;;;4922149;29;25013;-74
2022/11/27 11:18:28;;;;;;;19.13;9.02;;;;;;;;;;4926135;29;20108;-73
2022/11/27 11:20:56;;;;;;;18.13;7.53;;;;;;;;;;4921167;28;20031;-75
2022/11/27 11:23:30;;;;;;;16.38;8.77;;;;;;;;;;4944870;28;20031;-74
2022/11/27 11:25:59;;;;;;;15.25;8.10;;;;;;;;;;4931917;29;20031;-71
2022/11/27 11:28:25;;;;;;;20.63;9.10;;;;;;;;;;4945420;28;20921;-71
2022/11/27 11:30:53;;;;;;;23.30;9.80;;;;;;;;;;4951980;28;20050;-73
2022/11/27 11:33:19;;;;;;;21.55;8.82;;;;;;;;;;4966748;28;20027;-75
2022/11/27 11:35:51;;;;;;;18.35;8.02;;;;;;;;;;4935553;28;20090;-75
2022/11/27 11:38:18;;;;;;;16.25;8.73;;;;;;;;;;4954861;28;20059;-76
2022/11/27 11:40:56;;;;;;;13.82;7.38;;;;;;;;;;4956799;28;20027;-75
2022/11/27 11:43:41;;;;;;;15.38;8.52;;;;;;;;;;4971831;28;20388;-75
2022/11/27 11:46:28;;;;;;;15.75;7.85;;;;;;;;;;4960636;28;20043;-74
2022/11/27 11:48:57;;;;;;;17.98;9.65;;;;;;;;;;4941673;28;20134;-74
2022/11/27 11:51:34;;;;;;;37.70;17.48;;;;;;;;;;4952346;28;20026;-73
2022/11/27 11:54:28;;;;;;;15.57;8.35;;;;;;;;;;4947886;28;20046;-78
2022/11/27 11:56:56;;;;;;;16.02;7.95;;;;;;;;;;4966919;28;20029;-78
2022/11/27 11:59:44;;;;;;;17.13;7.65;;;;;;;;;;4953267;28;20022;-75
2022/11/27 12:02:25;;;;;;;18.92;9.10;;;;;;;;;;4954472;28;20035;-74
2022/11/27 12:05:02;;;;;;;18.83;8.65;;;;;;;;;;4944532;28;20082;-73
2022/11/27 12:07:43;;;;;;;21.10;9.40;;;;;;;;;;4950204;28;20117;-75
2022/11/27 12:10:12;;;;;;;17.42;8.63;;;;;;;;;;4950520;28;20056;-73
2022/11/27 12:12:57;;;;;;;16.98;7.60;;;;;;;;;;4958117;28;20035;-75
2022/11/27 12:15:34;;;;;;;12.77;6.85;;;;;;;;;;4960770;28;20038;-73
2022/11/27 12:18:01;;;;;;;18.98;8.30;;;;;;;;;;4957696;28;20039;-73
2022/11/27 12:20:46;;;;;;;18.15;8.07;;;;;;;;;;4953269;28;20028;-75
2022/11/27 12:23:22;;;;;;;16.23;7.47;;;;;;;;;;4936605;28;20269;-77
2022/11/27 12:26:00;;;;;;;14.32;7.47;;;;;;;;;;4945183;28;20047;-75
2022/11/27 12:28:26;;;;;;;21.23;9.60;;;;;;;;;;4958057;28;20032;-74
2022/11/27 12:30:55;;;;;;;16.55;8.25;;;;;;;;;;4956996;28;20039;-78
2022/11/27 12:33:40;;;;;;;18.45;7.85;;;;;;;;;;4943280;28;20143;-76
2022/11/27 12:36:18;;;;;;;20.17;9.82;;;;;;;;;;4957911;28;20027;-78
2022/11/27 12:39:03;;;;;;;17.33;8.98;;;;;;;;;;4938472;28;20421;-76
2022/11/27 12:41:38;;;;;;;12.05;7.25;;;;;;;;;;4965570;28;20020;-75
2022/11/27 12:44:12;;;;;;;18.08;8.43;;;;;;;;;;4949417;28;20445;-73
2022/11/27 12:46:41;;;;;;;17.77;8.15;;;;;;;;;;4952186;28;20472;-73
2022/11/27 12:49:13;;;;;;;14.82;9.02;;;;;;;;;;4953588;28;20033;-74
2022/11/27 12:51:39;;;;;;;;;;;;;;;;;;4953067;28;20226;-74
2022/11/27 12:54:09;;;;;;;14.25;8.55;;;;;;;;;;4964116;28;19949;-75
2022/11/27 12:56:38;;;;;;;17.73;7.07;;;;;;;;;;4966497;28;20031;-73
2022/11/27 12:59:10;;;;;;;14.00;7.55;;;;;;;;;;4948427;28;20538;-76
2022/11/27 13:01:40;;;;;;;13.40;7.05;;;;;;;;;;4949846;28;20349;-76
2022/11/27 13:04:13;;;;;;;14.57;7.03;;;;;;;;;;4962984;28;20102;-76
2022/11/27 13:06:57;;;;;;;19.70;7.85;;;;;;;;;;4964657;28;20023;-75
2022/11/27 13:09:41;;;;;;;16.23;8.93;;;;;;;;;;4938043;28;20074;-74
2022/11/27 13:12:11;;;;;;;18.88;8.45;;;;;;;;;;4934387;29;20105;-74
2022/11/27 13:14:38;;;;;;;12.77;6.47;;;;;;;;;;4952878;29;20027;-75
2022/11/27 13:17:06;;;;;;;16.00;6.50;;;;;;;;;;4957840;28;20030;-74
2022/11/27 13:19:34;;;;;;;19.38;8.50;;;;;;;;;;4957044;28;20036;-73
2022/11/27 13:22:03;;;;;;;17.48;8.90;;;;;;;;;;4959093;28;20389;-74
2022/11/27 13:24:29;;;;;;;18.23;8.10;;;;;;;;;;4948450;29;20024;-73
2022/11/27 13:27:02;;;;;;;15.10;9.55;;;;;;;;;;4941474;29;20385;-73
2022/11/27 13:29:47;;;;;;;20.48;9.13;;;;;;;;;;4951353;28;20574;-72
2022/11/27 13:32:19;;;;;;;15.48;7.53;;;;;;;;;;4962097;28;20031;-73
2022/11/27 13:34:46;;;;;;;12.23;7.20;;;;;;;;;;4961008;28;20035;-72
2022/11/27 13:37:27;;;;;;;16.70;7.85;;;;;;;;;;4961127;28;20436;-73
2022/11/27 13:40:21;;;;;;;15.20;7.28;;;;;;;;;;4955628;28;20031;-73
2022/11/27 13:42:54;;;;;;;15.07;8.07;;;;;;;;;;4953302;28;20392;-74
2022/11/27 13:45:26;;;;;;;14.88;7.97;;;;;;;;;;4969892;28;20417;-72
2022/11/27 13:47:52;;;;;;;14.07;7.72;;;;;;;;;;4953811;28;20494;-74
2022/11/27 13:50:22;;;;;;;14.02;8.07;;;;;;;;;;4951521;29;20145;-73
2022/11/27 13:52:49;;;;;;;15.60;8.45;;;;;;;;;;4956443;28;20034;-74
2022/11/27 13:55:22;;;;;;;21.08;9.55;;;;;;;;;;4968515;28;20736;-73
2022/11/27 13:57:48;;;;;;;;;;;;;;;;;;4959147;28;20035;-74
2022/11/27 14:00:15;;;;;;;19.10;9.63;;;;;;;;;;4964521;28;19968;-75
2022/11/27 14:02:47;;;;;;;15.18;8.02;;;;;;;;;;4952035;28;20031;-73
2022/11/27 14:05:14;;;;;;;15.65;7.85;;;;;;;;;;4960201;28;20081;-73
2022/11/27 14:07:42;;;;;;;15.20;8.70;;;;;;;;;;4960318;28;20035;-74
2022/11/27 14:10:18;;;;;;;17.40;8.35;;;;;;;;;;4958492;28;20062;-74
2022/11/27 14:13:11;;;;;;;19.08;8.23;;;;;;;;;;4945795;28;20034;-73
2022/11/27 14:15:37;;;;;;;13.63;8.00;;;;;;;;;;4961406;28;20043;-74
2022/11/27 14:18:23;;;;;;;18.88;9.45;;;;;;;;;;4951775;28;20484;-72
2022/11/27 14:20:49;;;;;;;12.05;7.80;;;;;;;;;;4947449;29;20032;-73
2022/11/27 14:23:26;;;;;;;10.93;7.93;;;;;;;;;;4932504;28;20108;-73
2022/11/27 14:26:00;;;;;;;20.42;8.23;;;;;;;;;;4932407;29;20031;-74
2022/11/27 14:28:26;;;;;;;15.27;7.38;;;;;;;;;;4930065;29;20096;-73
2022/11/27 14:30:59;;;;;;;18.80;8.38;;;;;;;;;;4932610;29;20536;-73
2022/11/27 14:33:26;;;;;;;13.70;7.80;;;;;;;;;;4931504;29;20519;-73
2022/11/27 14:35:59;;;;;;;16.05;7.32;;;;;;;;;;4915466;29;20635;-72
2022/11/27 14:38:26;;;;;;;19.13;8.15;;;;;;;;;;4937807;29;20435;-73
2022/11/27 14:40:53;;;;;;;14.82;8.20;;;;;;;;;;4951938;29;20027;-74
2022/11/27 14:43:22;;;;;;;15.15;7.38;;;;;;;;;;4934490;29;20427;-73